Canton, MI

4:06 AM EST on February 07, 2016 (GMT -0500)
Canton Center and Saltz | | Change Station
CLOSE
Current Station
Personal Weather Station
Location: Canton, MI
Elevation: 702 ft
Nearby Weather Stations

Elev 702 ft 42.32 °N, 83.49 °W | Updated 0 second ago

Partly Cloudy
Partly Cloudy
31.2 °F
Feels Like 31 °F
N
1.0
Wind Variable Wind from SSW
Gusts 2.0 mph

Today
High -- | Low -- °F
--% Chance of Precip.
Yesterday
High -- | Low -- °F
Precip. -- in
Pressure 30.08 in
Visibility 9.0 miles
Clouds Few 12000 ft
Windchill 31 °F
Dew Point 26 °F
Humidity 81%
Rainfall 0.00 in
Snow Depth Not available.
7:41 AM 5:55 PM
Waning Crescent, 2% visible
METAR KYIP 070853Z AUTO 20006KT 9SM FEW120 01/M03 A3007 RMK AO2 SLP185 T00111033 56015 TSNO
Pressure 30.08 in
Visibility 9.0 miles
Clouds Few 12000 ft
Windchill 31 °F
Dew Point 26 °F
Humidity 81%
Rainfall 0.00 in
Snow Depth Not available.
7:41 AM 5:55 PM
Waning Crescent, 2% visible
METAR KYIP 070853Z AUTO 20006KT 9SM FEW120 01/M03 A3007 RMK AO2 SLP185 T00111033 56015 TSNO

10-Day Weather Forecast

Almanac

Astronomy

Feb. 07, 2016 Rise Set
Actual Time
Civil Twilight
Nautical Twilight
Astronomical Twilight
Moon
Length of Visible Light
Length of Day
Tomorrow will be .
, % of the Moon is Illuminated

Today's Extremes

State Highs State Lows

Community

WunderPhotos

Upload Photos

1,891,171 photos uploaded!

WunderBlog® & News

Nearby

Air Quality

  Air Quality AQ Index Pollutant
Not available.

Snow Depth

Station Depth Elevation

Earthquake Activity

City Distance Mag. Time & Date
Minimum magnitude displayed is 2.5.

Coastal Water Temperatures

Place Temperature

Stations

Nearby Weather Stations

Station Location Temp. Windchill Dew Point Humidity Wind Precip. Elev Updated Type
                   

Watches & Warnings

There are currently no watches in effect.